KAHN/AHN METAR and TAF weather

Enter ICAO airport designator
Station Type Date Time Source
KAHN METAR 2021/08/02 01:51 UTC NOAA

KAHN 020151Z AUTO 26003KT 10SM CLR 27/21 A2997 RMK AO2 SLP138 T02670206 TSNO


Station Type Date Time Source
KAHN Decoded METAR 2021/08/02 01:51 UTC NOAA

ATHENS BEN EPPS AIRPORT, GA, United States (KAHN) 33-57N 083-20W 244M
Aug 01, 2021 - 09:51 PM EDT / 2021.08.02 0151 UTC
Wind: from the W (260 degrees) at 3 MPH (3 KT):0
Visibility: 10 mile(s):0
Sky conditions: clear
Temperature: 80.1 F (26.7 C)
Dew Point: 69.1 F (20.6 C)
Relative Humidity: 69%
Pressure (altimeter): 29.97 in. Hg (1014 hPa)
ob: KAHN 020151Z AUTO 26003KT 10SM CLR 27/21 A2997 RMK AO2 SLP138 T02670206 TSNO
cycle: 2

Station Type Date Time Source
KAHN TAF 2021/08/01 18:51 UTC NOAA

TAF KAHN 011749Z 0118/0218 29011G20KT P6SM FEW035
FM011900 29011G18KT P6SM VCSH BKN050
TEMPO 0120/0124 VRB12G22KT 4SM TSRA BKN035CB
FM020200 30005KT P6SM SCT050 SCT100
FM020400 32004KT P6SM SCT250
FM021500 06004KT P6SM SCT035

Example: see airport list